Time,TemperatureF,DewpointF,PressureIn,WindDirection,WindDirectionDegrees,WindSpeedMPH,WindSpeedGustMPH,Humidity,HourlyPrecipIn,Conditions,Clouds,dailyrainin,SolarRadiationWatts/m^2,SoftwareType,DateUTC
2014-03-06 00:12:00,45.0,42.0,-100.00,NNW,345,4.0,7.0,89,0.00,,,0.00,0.000000,,2014-03-06 06:12:00,
2014-03-06 00:22:00,45.0,42.0,-100.00,NNW,345,4.0,7.0,89,0.00,,,0.00,0.000000,,2014-03-06 06:22:00,
2014-03-06 00:32:00,45.0,42.0,-100.00,NNW,345,4.0,7.0,89,0.00,,,0.00,0.000000,,2014-03-06 06:32:00,
2014-03-06 01:11:00,45.0,41.0,-100.00,NNW,338,5.0,8.0,87,0.00,,,0.00,0.000000,,2014-03-06 07:11:00,
2014-03-06 01:22:00,45.0,41.0,-100.00,NNW,338,5.0,8.0,87,0.00,,,0.00,0.000000,,2014-03-06 07:22:00,
2014-03-06 01:32:00,45.0,41.0,-100.00,NNW,338,5.0,8.0,87,0.00,,,0.00,0.000000,,2014-03-06 07:32:00,
2014-03-06 02:11:00,42.0,40.0,-100.00,WNW,302,7.0,8.0,91,0.00,,,0.00,0.000000,,2014-03-06 08:11:00,
2014-03-06 02:22:00,42.0,40.0,-100.00,WNW,302,7.0,8.0,91,0.00,,,0.00,0.000000,,2014-03-06 08:22:00,
2014-03-06 02:32:00,42.0,40.0,-100.00,WNW,302,7.0,8.0,91,0.00,,,0.00,0.000000,,2014-03-06 08:32:00,
2014-03-06 03:11:00,44.0,39.0,-100.00,NW,317,10.0,15.0,83,0.00,,,0.00,0.000000,,2014-03-06 09:11:00,
2014-03-06 03:22:00,44.0,39.0,-100.00,NW,317,10.0,15.0,83,0.00,,,0.00,0.000000,,2014-03-06 09:22:00,
2014-03-06 03:33:00,44.0,39.0,-100.00,NW,317,10.0,15.0,83,0.00,,,0.00,0.000000,,2014-03-06 09:33:00,
2014-03-06 04:13:00,42.0,38.0,-100.00,NW,324,11.0,16.0,84,0.00,,,0.00,0.000000,,2014-03-06 10:13:00,
2014-03-06 04:23:00,42.0,38.0,-100.00,NW,324,11.0,16.0,84,0.00,,,0.00,0.000000,,2014-03-06 10:23:00,
2014-03-06 04:33:00,42.0,38.0,-100.00,NW,324,11.0,16.0,84,0.00,,,0.00,0.000000,,2014-03-06 10:33:00,
2014-03-06 05:12:00,41.0,37.0,-100.00,NNW,333,13.0,18.0,87,0.00,,,0.00,0.000000,,2014-03-06 11:12:00,
2014-03-06 05:22:00,41.0,37.0,-100.00,NNW,333,13.0,18.0,87,0.00,,,0.00,0.000000,,2014-03-06 11:22:00,
2014-03-06 05:33:00,41.0,37.0,-100.00,NNW,333,13.0,18.0,87,0.00,,,0.00,0.000000,,2014-03-06 11:33:00,
2014-03-06 06:12:00,40.0,37.0,-100.00,NNW,340,12.0,19.0,88,0.00,,,0.00,0.000000,,2014-03-06 12:12:00,
2014-03-06 06:22:00,40.0,37.0,-100.00,NNW,340,12.0,19.0,88,0.00,,,0.00,0.000000,,2014-03-06 12:22:00,
2014-03-06 06:32:00,40.0,37.0,-100.00,NNW,340,12.0,19.0,88,0.00,,,0.00,0.000000,,2014-03-06 12:32:00,
2014-03-06 07:12:00,38.0,36.0,-100.00,NNW,344,10.0,17.0,91,0.00,,,0.00,0.000000,,2014-03-06 13:12:00,
2014-03-06 07:22:00,38.0,36.0,-100.00,NNW,344,10.0,17.0,91,0.00,,,0.00,0.000000,,2014-03-06 13:22:00,
2014-03-06 07:32:00,38.0,36.0,-100.00,NNW,344,10.0,17.0,91,0.00,,,0.00,0.000000,,2014-03-06 13:32:00,
2014-03-06 08:12:00,40.0,37.0,-100.00,NNW,340,10.0,16.0,88,0.00,,,0.00,13.000000,,2014-03-06 14:12:00,
2014-03-06 08:22:00,40.0,37.0,-100.00,NNW,340,10.0,16.0,88,0.00,,,0.00,13.000000,,2014-03-06 14:22:00,
2014-03-06 08:32:00,40.0,37.0,-100.00,NNW,340,10.0,16.0,88,0.00,,,0.00,13.000000,,2014-03-06 14:32:00,
2014-03-06 09:12:00,41.0,37.0,-100.00,NNW,334,13.0,19.0,86,0.00,,,0.00,39.000000,,2014-03-06 15:12:00,
2014-03-06 09:23:00,41.0,37.0,-100.00,NNW,334,13.0,19.0,86,0.00,,,0.00,39.000000,,2014-03-06 15:23:00,
2014-03-06 09:33:00,41.0,37.0,-100.00,NNW,334,13.0,19.0,86,0.00,,,0.00,39.000000,,2014-03-06 15:33:00,
2014-03-06 10:13:00,45.0,37.0,-100.00,NNW,332,13.0,20.0,73,0.00,,,0.00,229.000000,,2014-03-06 16:13:00,
2014-03-06 10:23:00,45.0,37.0,-100.00,NNW,332,13.0,20.0,73,0.00,,,0.00,229.000000,,2014-03-06 16:23:00,
2014-03-06 10:33:00,45.0,37.0,-100.00,NNW,332,13.0,20.0,73,0.00,,,0.00,229.000000,,2014-03-06 16:33:00,
2014-03-06 11:12:00,45.0,36.0,-100.00,NNW,346,12.0,21.0,70,0.00,,,0.00,217.000000,,2014-03-06 17:12:00,
2014-03-06 11:22:00,45.0,36.0,-100.00,NNW,346,12.0,21.0,70,0.00,,,0.00,217.000000,,2014-03-06 17:22:00,
2014-03-06 11:33:00,45.0,36.0,-100.00,NNW,346,12.0,21.0,70,0.00,,,0.00,217.000000,,2014-03-06 17:33:00,
2014-03-06 12:12:00,48.0,36.0,-100.00,NNW,330,11.0,18.0,64,0.00,,,0.00,337.000000,,2014-03-06 18:12:00,
2014-03-06 12:22:00,48.0,36.0,-100.00,NNW,330,11.0,18.0,64,0.00,,,0.00,337.000000,,2014-03-06 18:22:00,
2014-03-06 12:32:00,48.0,36.0,-100.00,NNW,330,11.0,18.0,64,0.00,,,0.00,337.000000,,2014-03-06 18:32:00,
2014-03-06 13:12:00,53.0,37.0,-100.00,NW,314,9.0,16.0,55,0.00,,,0.00,670.000000,,2014-03-06 19:12:00,
2014-03-06 13:22:00,53.0,37.0,-100.00,NW,314,9.0,16.0,55,0.00,,,0.00,670.000000,,2014-03-06 19:22:00,
2014-03-06 13:32:00,53.0,37.0,-100.00,NW,314,9.0,16.0,55,0.00,,,0.00,670.000000,,2014-03-06 19:32:00,
2014-03-06 14:11:00,56.0,37.0,-100.00,NNW,327,7.0,17.0,48,0.00,,,0.00,812.000000,,2014-03-06 20:11:00,
2014-03-06 14:22:00,56.0,37.0,-100.00,NNW,327,7.0,17.0,48,0.00,,,0.00,812.000000,,2014-03-06 20:22:00,
2014-03-06 14:32:00,56.0,37.0,-100.00,NNW,327,7.0,17.0,48,0.00,,,0.00,812.000000,,2014-03-06 20:32:00,
2014-03-06 15:11:00,58.0,36.0,-100.00,NW,322,8.0,15.0,44,0.00,,,0.00,753.000000,,2014-03-06 21:11:00,
2014-03-06 15:22:00,58.0,36.0,-100.00,NW,322,8.0,15.0,44,0.00,,,0.00,753.000000,,2014-03-06 21:22:00,
2014-03-06 15:33:00,58.0,36.0,-100.00,NW,322,8.0,15.0,44,0.00,,,0.00,753.000000,,2014-03-06 21:33:00,
2014-03-06 16:13:00,60.0,36.0,-100.00,NW,317,8.0,15.0,40,0.00,,,0.00,638.000000,,2014-03-06 22:13:00,
2014-03-06 16:23:00,60.0,36.0,-100.00,NW,317,8.0,15.0,40,0.00,,,0.00,638.000000,,2014-03-06 22:23:00,
2014-03-06 16:33:00,60.0,36.0,-100.00,NW,317,8.0,15.0,40,0.00,,,0.00,638.000000,,2014-03-06 22:33:00,
2014-03-06 17:12:00,61.0,36.0,-100.00,WNW,297,6.0,14.0,39,0.00,,,0.00,469.000000,,2014-03-06 23:12:00,
2014-03-06 17:22:00,61.0,36.0,-100.00,WNW,297,6.0,14.0,39,0.00,,,0.00,469.000000,,2014-03-06 23:22:00,
2014-03-06 17:33:00,61.0,36.0,-100.00,WNW,297,6.0,14.0,39,0.00,,,0.00,469.000000,,2014-03-06 23:33:00,
2014-03-06 18:12:00,60.0,35.0,-100.00,NNW,340,4.0,10.0,39,0.00,,,0.00,243.000000,,2014-03-07 00:12:00,
2014-03-06 18:22:00,60.0,35.0,-100.00,NNW,340,4.0,10.0,39,0.00,,,0.00,243.000000,,2014-03-07 00:22:00,
2014-03-06 18:32:00,60.0,35.0,-100.00,NNW,340,4.0,10.0,39,0.00,,,0.00,243.000000,,2014-03-07 00:32:00,
2014-03-06 19:11:00,55.0,34.0,-100.00,ENE,74,4.0,9.0,45,0.00,,,0.00,53.000000,,2014-03-07 01:11:00,
2014-03-06 19:22:00,55.0,34.0,-100.00,ENE,74,4.0,9.0,45,0.00,,,0.00,53.000000,,2014-03-07 01:22:00,
2014-03-06 19:32:00,55.0,34.0,-100.00,ENE,74,4.0,9.0,45,0.00,,,0.00,53.000000,,2014-03-07 01:32:00,
2014-03-06 20:12:00,53.0,34.0,-100.00,ESE,116,2.0,4.0,49,0.00,,,0.00,0.000000,,2014-03-07 02:12:00,
2014-03-06 20:22:00,53.0,34.0,-100.00,ESE,116,2.0,4.0,49,0.00,,,0.00,0.000000,,2014-03-07 02:22:00,
2014-03-06 20:32:00,53.0,34.0,-100.00,ESE,116,2.0,4.0,49,0.00,,,0.00,0.000000,,2014-03-07 02:32:00,
2014-03-06 21:12:00,52.0,33.0,-100.00,East,92,4.0,6.0,49,0.00,,,0.00,0.000000,,2014-03-07 03:12:00,
2014-03-06 21:22:00,52.0,33.0,-100.00,East,92,4.0,6.0,49,0.00,,,0.00,0.000000,,2014-03-07 03:22:00,
2014-03-06 21:33:00,52.0,33.0,-100.00,East,92,4.0,6.0,49,0.00,,,0.00,0.000000,,2014-03-07 03:33:00,
2014-03-06 22:13:00,48.0,35.0,-100.00,East,92,5.0,9.0,60,0.00,,,0.00,0.000000,,2014-03-07 04:13:00,
2014-03-06 22:23:00,48.0,35.0,-100.00,East,92,5.0,9.0,60,0.00,,,0.00,0.000000,,2014-03-07 04:23:00,
2014-03-06 22:33:00,48.0,35.0,-100.00,East,92,5.0,9.0,60,0.00,,,0.00,0.000000,,2014-03-07 04:33:00,
2014-03-06 23:12:00,46.0,36.0,-100.00,SE,136,3.0,12.0,67,0.00,,,0.00,0.000000,,2014-03-07 05:12:00,
2014-03-06 23:22:00,46.0,36.0,-100.00,SE,136,3.0,12.0,67,0.00,,,0.00,0.000000,,2014-03-07 05:22:00,
2014-03-06 23:33:00,46.0,36.0,-100.00,SE,136,3.0,12.0,67,0.00,,,0.00,0.000000,,2014-03-07 05:33:00,